Time;durP1;ratioP1;P1;durP2;ratioP2;P2;SDS_P1;SDS_P2;PMS_P1;PMS_P2;Temp;Humidity;BMP_temperature;BMP_pressure;BME280_temperature;BME280_humidity;BME280_pressure;Samples;Min_cycle;Max_cycle;Signal;HPM_P1;HPM_P2
2023/07/20 00:01:59;;;;;;;1999.90;999.90;;;14.80;99.90;;;;;;5047482;28;20040;-70
2023/07/20 00:04:24;;;;;;;1999.90;999.90;;;14.80;99.90;;;;;;5046161;28;20507;-70
2023/07/20 00:06:50;;;;;;;1999.90;999.90;;;14.80;99.90;;;;;;5032171;28;20061;-69
2023/07/20 00:09:16;;;;;;;1999.90;999.90;;;14.80;99.90;;;;;;5019514;28;20040;-69
2023/07/20 00:11:50;;;;;;;1999.90;999.90;;;14.80;99.90;;;;;;5027124;28;20118;-70
2023/07/20 00:14:16;;;;;;;1999.90;999.90;;;14.70;99.90;;;;;;5046308;28;20072;-70
2023/07/20 00:16:42;;;;;;;1999.90;999.90;;;14.70;99.90;;;;;;5045503;28;20090;-70
2023/07/20 00:19:08;;;;;;;1999.90;999.90;;;14.70;99.90;;;;;;5029912;28;20045;-70
2023/07/20 00:21:34;;;;;;;1999.90;999.90;;;14.70;99.90;;;;;;5042143;28;20413;-70
2023/07/20 00:24:00;;;;;;;1999.90;999.90;;;14.70;99.90;;;;;;5035847;28;20042;-70
2023/07/20 00:26:25;;;;;;;1999.90;999.90;;;14.60;99.90;;;;;;5041111;28;20044;-70
2023/07/20 00:28:51;;;;;;;1999.90;999.90;;;14.60;99.90;;;;;;5045862;28;20036;-70
2023/07/20 00:31:17;;;;;;;1999.90;999.90;;;14.60;99.90;;;;;;5043561;28;20606;-70
2023/07/20 00:33:43;;;;;;;1999.90;999.90;;;14.50;99.90;;;;;;5046151;28;20077;-70
2023/07/20 00:36:08;;;;;;;1999.90;999.90;;;14.50;99.90;;;;;;5039122;28;20087;-71
2023/07/20 00:38:34;;;;;;;1999.90;999.90;;;14.50;99.90;;;;;;5044120;28;20483;-70
2023/07/20 00:41:00;;;;;;;1999.90;999.90;;;14.40;99.90;;;;;;5045982;28;20025;-70
2023/07/20 00:43:25;;;;;;;1999.90;999.90;;;14.40;99.90;;;;;;5046169;28;20106;-70
2023/07/20 00:45:51;;;;;;;1999.90;999.90;;;14.40;99.90;;;;;;5033754;28;20029;-70
2023/07/20 00:48:16;;;;;;;1999.90;999.90;;;14.30;99.90;;;;;;5029464;28;20045;-71
2023/07/20 00:50:43;;;;;;;1999.90;999.90;;;14.30;99.90;;;;;;5028231;28;20033;-70
2023/07/20 00:53:08;;;;;;;1999.90;999.90;;;14.20;99.90;;;;;;5040538;28;20049;-71
2023/07/20 00:55:35;;;;;;;1999.90;999.90;;;14.10;99.90;;;;;;5042927;28;20112;-70
2023/07/20 00:58:01;;;;;;;1999.90;999.90;;;14.00;99.90;;;;;;5040658;28;20037;-70
2023/07/20 01:00:27;;;;;;;1999.90;999.90;;;14.00;99.90;;;;;;5038792;28;20056;-70
2023/07/20 01:02:53;;;;;;;1999.90;999.90;;;13.90;99.90;;;;;;5045663;28;20409;-70
2023/07/20 01:05:20;;;;;;;1999.90;999.90;;;13.90;99.90;;;;;;5048296;28;20455;-70
2023/07/20 01:07:58;;;;;;;1999.90;999.90;;;13.80;99.90;;;;;;5045816;28;20456;-70
2023/07/20 01:10:33;;;;;;;1999.90;999.90;;;13.70;99.90;;;;;;5044944;28;20036;-70
2023/07/20 01:13:01;;;;;;;1999.90;999.90;;;13.70;99.90;;;;;;5037346;28;20049;-70
2023/07/20 01:15:27;;;;;;;1999.90;999.90;;;13.60;99.90;;;;;;5031378;28;20280;-70
2023/07/20 01:17:52;;;;;;;1999.90;999.90;;;13.50;99.90;;;;;;5021810;28;20124;-70
2023/07/20 01:20:20;;;;;;;1999.90;999.90;;;13.50;99.90;;;;;;5052706;28;20041;-70
2023/07/20 01:22:46;;;;;;;1999.90;999.90;;;13.40;99.90;;;;;;5036344;28;20379;-70
2023/07/20 01:25:28;;;;;;;1999.90;999.90;;;13.40;99.90;;;;;;5044544;28;20059;-70
2023/07/20 01:28:12;;;;;;;1999.90;999.90;;;13.30;99.90;;;;;;5046205;28;20048;-70
2023/07/20 01:31:11;;;;;;;1999.90;999.90;;;13.20;99.90;;;;;;5037357;28;20052;-70
2023/07/20 01:33:37;;;;;;;1999.90;999.90;;;13.20;99.90;;;;;;5050160;28;20052;-70
2023/07/20 01:36:03;;;;;;;1999.90;999.90;;;13.10;99.90;;;;;;5042473;28;20037;-71
2023/07/20 01:38:29;;;;;;;1999.90;999.90;;;13.10;99.90;;;;;;5052461;28;20038;-70
2023/07/20 01:40:57;;;;;;;1999.90;999.90;;;13.00;99.90;;;;;;5045093;28;20220;-70
2023/07/20 01:43:22;;;;;;;1999.90;999.90;;;13.00;99.90;;;;;;5033899;28;20493;-70
2023/07/20 01:45:48;;;;;;;1999.90;999.90;;;13.00;99.90;;;;;;5040869;28;20072;-70
2023/07/20 01:48:13;;;;;;;1999.90;999.90;;;12.90;99.90;;;;;;5050415;28;20032;-70
2023/07/20 01:50:39;;;;;;;1999.90;999.90;;;12.90;99.90;;;;;;5048141;28;20044;-70
2023/07/20 01:53:04;;;;;;;1999.90;999.90;;;12.80;99.90;;;;;;5048952;28;20040;-70
2023/07/20 01:55:30;;;;;;;1999.90;999.90;;;12.70;99.90;;;;;;5044394;28;20410;-70
2023/07/20 01:57:56;;;;;;;1999.90;999.90;;;12.70;99.90;;;;;;5039133;28;20064;-71
2023/07/20 02:00:24;;;;;;;1999.90;999.90;;;12.70;99.90;;;;;;5041789;28;20119;-70
2023/07/20 02:02:50;;;;;;;1999.90;999.90;;;12.60;99.90;;;;;;5045427;28;20043;-70
2023/07/20 02:05:16;;;;;;;1999.90;999.90;;;12.60;99.90;;;;;;5049125;28;20497;-70
2023/07/20 02:07:42;;;;;;;1999.90;999.90;;;12.50;99.90;;;;;;5048855;28;20057;-70
2023/07/20 02:10:08;;;;;;;1999.90;999.90;;;12.40;99.90;;;;;;5026093;28;20095;-70
2023/07/20 02:12:33;;;;;;;1999.90;999.90;;;12.40;99.90;;;;;;5022635;28;20052;-70
2023/07/20 02:14:59;;;;;;;1999.90;999.90;;;12.30;99.90;;;;;;5035288;28;20068;-71
2023/07/20 02:17:25;;;;;;;1999.90;999.90;;;12.20;99.90;;;;;;5016689;28;20075;-70
2023/07/20 02:19:53;;;;;;;1999.90;999.90;;;12.20;99.90;;;;;;5037205;28;20047;-70
2023/07/20 02:22:18;;;;;;;1999.90;999.90;;;12.10;99.90;;;;;;5041677;28;20076;-70
2023/07/20 02:24:44;;;;;;;1999.90;999.90;;;12.10;99.90;;;;;;5046519;28;20084;-71
2023/07/20 02:27:10;;;;;;;1999.90;999.90;;;12.00;99.90;;;;;;5048339;28;20051;-70
2023/07/20 02:29:36;;;;;;;1999.90;999.90;;;12.00;99.90;;;;;;5048672;28;20053;-70
2023/07/20 02:32:02;;;;;;;1999.90;999.90;;;11.90;99.90;;;;;;5048137;28;20044;-70
2023/07/20 02:34:27;;;;;;;1999.90;999.90;;;11.90;99.90;;;;;;5043664;28;20064;-70
2023/07/20 02:36:56;;;;;;;1999.90;999.90;;;11.90;99.90;;;;;;5046667;28;20322;-70
2023/07/20 02:39:21;;;;;;;1999.90;999.90;;;11.80;99.90;;;;;;5044909;28;20116;-70
2023/07/20 02:41:47;;;;;;;1999.90;999.90;;;11.80;99.90;;;;;;5029876;28;20131;-70
2023/07/20 02:44:14;;;;;;;1999.90;999.90;;;11.80;99.90;;;;;;5030125;28;20444;-70
2023/07/20 02:46:39;;;;;;;1999.90;999.90;;;11.80;99.90;;;;;;5046426;28;20056;-70
2023/07/20 02:49:05;;;;;;;1999.90;999.90;;;11.80;99.90;;;;;;5045646;28;20049;-71
2023/07/20 02:51:31;;;;;;;1999.90;999.90;;;11.80;99.90;;;;;;5038781;28;20073;-71
2023/07/20 02:53:56;;;;;;;1999.90;999.90;;;11.80;99.90;;;;;;5040997;28;20153;-71
2023/07/20 02:56:22;;;;;;;1999.90;999.90;;;11.80;99.90;;;;;;5022406;28;20076;-70
2023/07/20 02:58:48;;;;;;;1999.90;999.90;;;11.70;99.90;;;;;;5047245;28;20032;-70
2023/07/20 03:01:15;;;;;;;1999.90;999.90;;;11.70;99.90;;;;;;5047154;28;20033;-71
2023/07/20 03:03:46;;;;;;;1999.90;999.90;;;11.70;99.90;;;;;;5038086;28;20051;-70
2023/07/20 03:06:15;;;;;;;1999.90;999.90;;;11.60;99.90;;;;;;5037142;28;20099;-70
2023/07/20 03:08:41;;;;;;;1999.90;999.90;;;11.60;99.90;;;;;;5045170;28;20037;-71
2023/07/20 03:11:07;;;;;;;1999.90;999.90;;;11.60;99.90;;;;;;5025928;28;20051;-70
2023/07/20 03:13:33;;;;;;;1999.90;999.90;;;11.50;99.90;;;;;;5059823;28;20148;-71
2023/07/20 03:15:59;;;;;;;1999.90;999.90;;;11.40;99.90;;;;;;5045902;28;20114;-71
2023/07/20 03:18:24;;;;;;;1999.90;999.90;;;11.40;99.90;;;;;;5016568;28;20044;-70
2023/07/20 03:20:50;;;;;;;1999.90;999.90;;;11.30;99.90;;;;;;5039592;28;20106;-70
2023/07/20 03:23:16;;;;;;;1999.90;999.90;;;11.30;99.90;;;;;;5028195;28;20035;-71
2023/07/20 03:25:42;;;;;;;1999.90;999.90;;;11.20;99.90;;;;;;5047131;28;20111;-71
2023/07/20 03:28:07;;;;;;;1999.90;999.90;;;11.20;99.90;;;;;;5038258;28;20056;-70
2023/07/20 03:30:34;;;;;;;1999.90;999.90;;;11.10;99.90;;;;;;5036077;28;20508;-70
2023/07/20 03:33:00;;;;;;;1999.90;999.90;;;11.00;99.90;;;;;;5023515;28;20049;-71
2023/07/20 03:35:25;;;;;;;1999.90;999.90;;;11.00;99.90;;;;;;5056663;28;20045;-70
2023/07/20 03:37:52;;;;;;;1999.90;999.90;;;11.00;99.90;;;;;;5043916;28;20508;-70
2023/07/20 03:40:17;;;;;;;1999.90;999.90;;;11.00;99.90;;;;;;5027745;28;20076;-70
2023/07/20 03:42:43;;;;;;;1999.90;999.90;;;10.90;99.90;;;;;;5043648;28;20072;-70
2023/07/20 03:45:09;;;;;;;1999.90;999.90;;;10.90;99.90;;;;;;5048241;28;20045;-70
2023/07/20 03:47:34;;;;;;;1999.90;999.90;;;10.90;99.90;;;;;;5059711;28;20041;-70
2023/07/20 03:50:00;;;;;;;1999.90;999.90;;;10.90;99.90;;;;;;5061162;28;20489;-72
2023/07/20 03:52:26;;;;;;;1999.90;999.90;;;10.80;99.90;;;;;;5046809;28;20496;-70
2023/07/20 03:54:51;;;;;;;1999.90;999.90;;;10.80;99.90;;;;;;5022123;28;20490;-71
2023/07/20 03:57:17;;;;;;;1999.90;999.90;;;10.80;99.90;;;;;;5030880;28;20041;-71
2023/07/20 03:59:46;;;;;;;1999.90;999.90;;;10.80;99.90;;;;;;5044333;28;20487;-71
2023/07/20 04:02:11;;;;;;;1999.90;999.90;;;10.80;99.90;;;;;;5039545;28;20041;-70
2023/07/20 04:04:37;;;;;;;1999.90;999.90;;;10.70;99.90;;;;;;5028469;28;20044;-70
2023/07/20 04:07:03;;;;;;;1999.90;999.90;;;10.70;99.90;;;;;;5047146;28;20091;-70
2023/07/20 04:09:29;;;;;;;1999.90;999.90;;;10.70;99.90;;;;;;5046428;28;20055;-70
2023/07/20 04:11:55;;;;;;;1999.90;999.90;;;10.70;99.90;;;;;;5042095;28;20045;-70
2023/07/20 04:14:21;;;;;;;1999.90;999.90;;;10.70;99.90;;;;;;5043577;28;20094;-70
2023/07/20 04:16:47;;;;;;;1999.90;999.90;;;10.70;99.90;;;;;;5046005;28;20073;-71
2023/07/20 04:19:13;;;;;;;1999.90;999.90;;;10.70;99.90;;;;;;5046145;28;20041;-70
2023/07/20 04:21:42;;;;;;;1999.90;999.90;;;10.70;99.90;;;;;;5027013;28;20099;-70
2023/07/20 04:24:07;;;;;;;1999.90;999.90;;;10.70;99.90;;;;;;5027280;28;20084;-70
2023/07/20 04:26:33;;;;;;;1999.90;999.90;;;10.70;99.90;;;;;;5024780;28;20042;-70
2023/07/20 04:28:59;;;;;;;1999.90;999.90;;;10.70;99.90;;;;;;5042745;28;20049;-72
2023/07/20 04:31:25;;;;;;;1999.90;999.90;;;10.70;99.90;;;;;;5048267;28;20044;-70
2023/07/20 04:33:50;;;;;;;1999.90;999.90;;;10.70;99.90;;;;;;5045085;28;20107;-71
2023/07/20 04:36:19;;;;;;;1999.90;999.90;;;10.70;99.90;;;;;;5038503;28;20033;-70
2023/07/20 04:38:48;;;;;;;1999.90;999.90;;;10.70;99.90;;;;;;5038310;28;20049;-70
2023/07/20 04:41:14;;;;;;;1999.90;999.90;;;10.80;99.90;;;;;;5045249;28;20048;-70
2023/07/20 04:43:44;;;;;;;1999.90;999.90;;;10.80;99.90;;;;;;5043074;28;20043;-70
2023/07/20 04:46:12;;;;;;;1999.90;999.90;;;10.80;99.90;;;;;;5042856;28;20047;-70
2023/07/20 04:48:40;;;;;;;1999.90;999.90;;;10.80;99.90;;;;;;5054125;28;20045;-71
2023/07/20 04:51:06;;;;;;;1999.90;999.90;;;10.90;99.90;;;;;;5012598;28;20033;-71
2023/07/20 04:53:31;;;;;;;1999.90;999.90;;;10.90;99.90;;;;;;5044509;28;20098;-70
2023/07/20 04:55:57;;;;;;;1999.90;999.90;;;10.90;99.90;;;;;;5045778;28;20061;-70
2023/07/20 04:58:23;;;;;;;1999.90;999.90;;;11.00;99.90;;;;;;5046026;28;20490;-71
2023/07/20 05:00:49;;;;;;;1999.90;999.90;;;11.00;99.90;;;;;;5036066;28;20041;-70
2023/07/20 05:03:15;;;;;;;1999.90;999.90;;;11.10;99.90;;;;;;5039180;28;20063;-71
2023/07/20 05:05:40;;;;;;;1999.90;999.90;;;11.10;99.90;;;;;;5038902;28;20069;-71
2023/07/20 05:08:06;;;;;;;1999.90;999.90;;;11.20;99.90;;;;;;5056083;28;20048;-71
2023/07/20 05:10:32;;;;;;;1999.90;999.90;;;11.30;99.90;;;;;;5043247;28;20497;-71
2023/07/20 05:12:58;;;;;;;1999.90;999.90;;;11.30;99.90;;;;;;5046222;28;20103;-70
2023/07/20 05:15:24;;;;;;;1999.90;999.90;;;11.40;99.90;;;;;;5036185;28;20040;-70
2023/07/20 05:17:50;;;;;;;1999.90;999.90;;;11.40;99.90;;;;;;5052693;28;20056;-71
2023/07/20 05:20:15;;;;;;;1999.90;999.90;;;11.50;99.90;;;;;;5048285;28;20477;-71
2023/07/20 05:22:43;;;;;;;1999.90;999.90;;;11.50;99.90;;;;;;5041508;28;20318;-71
2023/07/20 05:25:10;;;;;;;1999.90;999.90;;;11.60;99.90;;;;;;5041191;28;20052;-71
2023/07/20 05:27:37;;;;;;;1999.90;999.90;;;11.80;99.90;;;;;;5038960;28;20053;-70
2023/07/20 05:30:03;;;;;;;1999.90;999.90;;;12.00;99.90;;;;;;5039395;28;20463;-71
2023/07/20 05:32:29;;;;;;;1999.90;999.90;;;12.20;99.90;;;;;;5042149;28;20049;-70
2023/07/20 05:34:55;;;;;;;1999.90;999.90;;;12.40;99.90;;;;;;5047848;28;20409;-71
2023/07/20 05:37:21;;;;;;;1999.90;999.90;;;12.80;99.90;;;;;;5049456;28;20036;-71
2023/07/20 05:39:46;;;;;;;1999.90;999.90;;;13.00;99.90;;;;;;5047684;28;20854;-70
2023/07/20 05:42:12;;;;;;;1999.90;999.90;;;13.20;99.90;;;;;;5043148;28;20087;-70
2023/07/20 05:44:38;;;;;;;1999.90;999.90;;;13.40;99.90;;;;;;5046872;28;20051;-70
2023/07/20 05:47:04;;;;;;;1999.90;999.90;;;13.50;99.90;;;;;;5031117;28;20037;-70
2023/07/20 05:49:29;;;;;;;1999.90;999.90;;;13.70;99.90;;;;;;5037131;28;20072;-70
2023/07/20 05:51:56;;;;;;;1999.90;999.90;;;13.80;99.90;;;;;;5039843;28;20041;-71
2023/07/20 05:54:23;;;;;;;1999.90;999.90;;;14.10;99.90;;;;;;5047668;28;20045;-70
2023/07/20 05:56:49;;;;;;;1999.90;999.90;;;14.20;99.90;;;;;;5039921;28;20042;-70
2023/07/20 05:59:14;;;;;;;1999.90;999.90;;;14.30;99.90;;;;;;5031116;28;20093;-70
2023/07/20 06:01:40;;;;;;;1999.90;999.90;;;14.40;99.90;;;;;;5048015;28;20899;-70
2023/07/20 06:04:06;;;;;;;1999.90;999.90;;;14.50;99.90;;;;;;5028884;28;20040;-71
2023/07/20 06:06:31;;;;;;;1999.90;999.90;;;14.70;99.90;;;;;;5043239;28;20068;-70
2023/07/20 06:08:57;;;;;;;1999.90;999.90;;;14.80;99.90;;;;;;5044359;28;20413;-70
2023/07/20 06:11:22;;;;;;;1999.90;999.90;;;14.90;99.90;;;;;;5044112;28;20509;-70
2023/07/20 06:13:48;;;;;;;1999.90;999.90;;;15.10;99.90;;;;;;5061758;28;20548;-71
2023/07/20 06:16:14;;;;;;;1999.90;999.90;;;15.50;99.90;;;;;;5045476;28;20044;-70
2023/07/20 06:18:39;;;;;;;1999.90;999.90;;;15.70;99.90;;;;;;5036637;28;20048;-71
2023/07/20 06:21:05;;;;;;;1999.90;999.90;;;15.90;99.90;;;;;;5048907;28;20048;-70
2023/07/20 06:23:30;;;;;;;1999.90;999.90;;;16.10;99.90;;;;;;5038359;28;20037;-70
2023/07/20 06:25:56;;;;;;;1999.90;999.90;;;16.10;99.90;;;;;;5039233;28;20049;-71
2023/07/20 06:28:22;;;;;;;1999.90;999.90;;;16.20;99.90;;;;;;5047776;28;20033;-70
2023/07/20 06:30:47;;;;;;;1999.90;999.90;;;16.20;99.90;;;;;;5056844;28;20049;-70
2023/07/20 06:33:13;;;;;;;1999.90;999.90;;;16.50;99.90;;;;;;5048545;28;20075;-71
2023/07/20 06:35:42;;;;;;;1999.90;999.90;;;16.90;99.90;;;;;;5024707;28;20049;-71
2023/07/20 06:38:08;;;;;;;1999.90;999.90;;;17.20;99.90;;;;;;5044956;28;20080;-70
2023/07/20 06:40:34;;;;;;;1999.90;999.90;;;17.70;99.90;;;;;;5048328;28;20068;-71
2023/07/20 06:42:59;;;;;;;1999.90;999.90;;;18.80;99.90;;;;;;5028084;28;20045;-71
2023/07/20 06:45:25;;;;;;;1999.90;999.90;;;19.70;99.90;;;;;;5059286;28;20110;-71
2023/07/20 06:47:51;;;;;;;1999.90;999.90;;;20.60;99.90;;;;;;5047630;28;20559;-71
2023/07/20 06:50:16;;;;;;;1999.90;999.90;;;21.40;99.90;;;;;;5047215;28;20103;-71
2023/07/20 06:52:42;;;;;;;589.58;556.83;;;22.00;99.90;;;;;;5020421;28;20118;-72
2023/07/20 06:55:08;;;;;;;724.40;679.17;;;22.60;99.90;;;;;;5048048;28;20132;-70
2023/07/20 06:57:34;;;;;;;772.67;723.25;;;22.90;99.90;;;;;;5042991;28;20060;-71
2023/07/20 06:59:59;;;;;;;817.70;764.15;;;23.20;99.90;;;;;;5040651;28;20509;-71
2023/07/20 07:02:25;;;;;;;738.05;691.92;;;23.30;99.90;;;;;;5051842;28;20064;-71
2023/07/20 07:04:50;;;;;;;707.03;663.25;;;23.50;99.90;;;;;;5042679;28;20041;-71
2023/07/20 07:07:16;;;;;;;694.45;652.33;;;23.70;99.90;;;;;;5047883;28;20056;-71
2023/07/20 07:09:42;;;;;;;737.25;691.03;;;23.70;99.90;;;;;;5045732;28;20921;-71
2023/07/20 07:12:08;;;;;;;725.05;680.20;;;24.00;99.90;;;;;;5047385;28;20045;-71
2023/07/20 07:14:34;;;;;;;726.10;681.33;;;23.80;99.90;;;;;;5046031;28;20044;-71
2023/07/20 07:17:00;;;;;;;628.85;590.95;;;23.40;99.90;;;;;;5030693;28;20032;-72
2023/07/20 07:19:26;;;;;;;704.20;660.88;;;23.60;99.90;;;;;;5062729;28;20037;-72
2023/07/20 07:21:52;;;;;;;652.70;614.40;;;24.00;99.90;;;;;;5042254;28;20043;-72
2023/07/20 07:24:17;;;;;;;570.30;538.75;;;24.60;99.90;;;;;;5021886;28;20489;-71
2023/07/20 07:26:44;;;;;;;405.40;385.40;;;25.00;99.90;;;;;;5028930;28;20098;-71
2023/07/20 07:29:09;;;;;;;432.45;411.02;;;25.30;99.90;;;;;;5046056;28;20081;-71
2023/07/20 07:31:38;;;;;;;304.20;290.75;;;24.80;98.90;;;;;;5039918;28;20077;-72
2023/07/20 07:34:04;;;;;;;209.57;200.63;;;23.50;99.00;;;;;;5062170;28;20045;-71
2023/07/20 07:36:33;;;;;;;55.60;52.92;;;22.10;99.90;;;;;;5034675;28;20032;-70
2023/07/20 07:38:59;;;;;;;137.93;131.88;;;21.20;99.90;;;;;;5041592;28;20401;-71
2023/07/20 07:41:24;;;;;;;188.43;180.38;;;21.60;99.90;;;;;;5026712;28;20033;-71
2023/07/20 07:43:50;;;;;;;289.05;276.33;;;22.30;99.50;;;;;;5033224;28;20060;-72
2023/07/20 07:46:15;;;;;;;296.17;282.70;;;22.80;98.70;;;;;;5039269;28;20065;-71
2023/07/20 07:48:42;;;;;;;349.40;333.17;;;23.00;99.10;;;;;;5044074;28;20068;-71
2023/07/20 07:51:08;;;;;;;217.15;206.98;;;22.50;99.90;;;;;;5044886;28;20028;-71
2023/07/20 07:53:36;;;;;;;237.50;226.68;;;22.10;99.70;;;;;;5044836;28;20503;-71
2023/07/20 07:56:03;;;;;;;196.80;187.98;;;21.70;99.20;;;;;;5034165;28;20084;-71
2023/07/20 07:58:28;;;;;;;173.93;166.50;;;21.20;98.50;;;;;;5048180;28;20051;-71
2023/07/20 08:00:54;;;;;;;111.60;106.60;;;20.90;99.90;;;;;;5040463;28;20041;-71
2023/07/20 08:03:20;;;;;;;103.90;99.13;;;21.10;99.90;;;;;;5039292;28;20129;-71
2023/07/20 08:05:45;;;;;;;133.65;127.90;;;21.30;99.00;;;;;;5046610;28;20616;-71
2023/07/20 08:08:11;;;;;;;183.85;175.73;;;21.20;99.90;;;;;;5049724;28;20047;-71
2023/07/20 08:10:36;;;;;;;241.80;230.85;;;20.80;99.90;;;;;;5030280;28;20099;-71
2023/07/20 08:13:02;;;;;;;204.63;195.68;;;20.40;99.90;;;;;;5032218;28;20116;-71
2023/07/20 08:15:28;;;;;;;142.88;136.60;;;19.90;99.90;;;;;;5043022;28;20050;-71
2023/07/20 08:17:53;;;;;;;175.65;168.00;;;19.60;99.90;;;;;;5040390;28;20402;-71
2023/07/20 08:20:19;;;;;;;130.25;124.47;;;19.20;99.90;;;;;;5046315;28;20040;-70
2023/07/20 08:22:45;;;;;;;213.32;203.57;;;19.00;99.90;;;;;;5056909;28;20045;-71
2023/07/20 08:25:10;;;;;;;208.98;199.65;;;18.90;99.90;;;;;;5019490;28;20041;-70
2023/07/20 08:27:37;;;;;;;227.82;217.85;;;18.90;99.90;;;;;;5046152;28;20040;-71
2023/07/20 08:30:04;;;;;;;321.55;306.88;;;19.10;99.90;;;;;;5044548;28;20068;-70
2023/07/20 08:32:30;;;;;;;257.70;246.07;;;19.40;99.90;;;;;;5016965;28;20048;-71
2023/07/20 08:34:55;;;;;;;348.73;332.52;;;19.90;99.90;;;;;;5042996;28;20037;-71
2023/07/20 08:37:22;;;;;;;371.05;353.80;;;20.70;99.90;;;;;;5032173;28;20068;-71
2023/07/20 08:39:48;;;;;;;350.20;333.92;;;21.40;99.90;;;;;;5036700;28;20375;-71
2023/07/20 08:42:14;;;;;;;377.98;360.30;;;22.00;99.90;;;;;;5019973;28;20087;-70
2023/07/20 08:44:42;;;;;;;339.70;324.40;;;22.50;99.90;;;;;;5035927;28;20048;-71
2023/07/20 08:47:09;;;;;;;308.80;295.02;;;22.80;98.60;;;;;;5044893;28;20726;-71
2023/07/20 08:49:35;;;;;;;280.85;268.30;;;23.20;98.50;;;;;;5046827;28;20500;-71
2023/07/20 08:52:03;;;;;;;253.85;242.35;;;23.40;97.60;;;;;;5046302;28;20044;-71
2023/07/20 08:54:33;;;;;;;90.60;86.43;;;23.50;96.50;;;;;;5044161;28;20044;-71
2023/07/20 08:57:04;;;;;;;46.25;44.03;;;23.40;95.10;;;;;;5037215;28;20041;-71
2023/07/20 08:59:30;;;;;;;38.72;36.80;;;22.50;94.90;;;;;;5036963;28;20045;-71
2023/07/20 09:01:57;;;;;;;41.55;39.53;;;21.70;95.40;;;;;;5040053;28;20060;-71
2023/07/20 09:04:23;;;;;;;52.50;49.78;;;21.00;96.50;;;;;;5045048;28;20044;-71
2023/07/20 09:06:50;;;;;;;148.00;141.27;;;20.50;97.80;;;;;;5041521;28;20059;-71
2023/07/20 09:09:16;;;;;;;79.75;76.10;;;20.60;97.70;;;;;;5045059;28;20041;-71
2023/07/20 09:11:42;;;;;;;39.47;37.35;;;21.30;98.40;;;;;;5039905;28;20053;-71
2023/07/20 09:14:09;;;;;;;197.07;188.52;;;22.20;98.20;;;;;;5028684;28;20120;-70
2023/07/20 09:16:55;;;;;;;190.68;182.25;;;22.80;96.70;;;;;;5043593;28;20098;-70
2023/07/20 09:19:21;;;;;;;30.02;28.42;;;23.20;95.80;;;;;;5040686;28;20504;-71
2023/07/20 09:21:51;;;;;;;36.90;35.10;;;23.30;94.70;;;;;;5023511;28;20552;-70
2023/07/20 09:24:18;;;;;;;42.97;40.80;;;22.70;92.60;;;;;;5019012;28;20044;-71
2023/07/20 09:26:45;;;;;;;43.17;41.17;;;21.90;94.10;;;;;;5039102;28;20087;-70
2023/07/20 09:29:11;;;;;;;43.53;41.15;;;21.30;95.10;;;;;;5044690;28;20049;-70
2023/07/20 09:31:37;;;;;;;70.75;67.30;;;20.80;95.60;;;;;;5037602;28;20413;-70
2023/07/20 09:34:04;;;;;;;95.30;91.13;;;20.70;96.40;;;;;;5035411;28;20438;-70
2023/07/20 09:36:35;;;;;;;171.82;164.38;;;21.30;97.50;;;;;;5038105;28;20071;-70
2023/07/20 09:39:05;;;;;;;93.53;89.38;;;21.80;97.10;;;;;;5025253;28;20501;-71
2023/07/20 09:41:41;;;;;;;94.65;90.57;;;21.80;95.70;;;;;;5024921;28;20048;-71
2023/07/20 09:44:10;;;;;;;153.57;146.88;;;21.80;96.20;;;;;;5037516;28;20099;-70
2023/07/20 09:46:49;;;;;;;34.78;33.08;;;21.90;96.60;;;;;;5040778;28;20049;-71
2023/07/20 09:49:17;;;;;;;35.72;33.92;;;22.10;95.50;;;;;;5025353;28;20045;-71
2023/07/20 09:51:44;;;;;;;33.25;31.60;;;22.50;96.40;;;;;;5034988;28;20040;-71
2023/07/20 09:54:14;;;;;;;93.03;88.80;;;22.60;94.50;;;;;;5036208;28;20049;-71
2023/07/20 09:56:42;;;;;;;36.10;34.20;;;22.40;94.70;;;;;;5036327;28;20556;-70
2023/07/20 09:59:10;;;;;;;103.35;98.70;;;22.50;95.60;;;;;;5031598;28;20048;-70
2023/07/20 10:01:40;;;;;;;73.95;70.40;;;22.80;95.80;;;;;;5043864;28;20049;-70
2023/07/20 10:04:08;;;;;;;30.92;29.35;;;22.90;93.80;;;;;;5034303;28;20050;-70
2023/07/20 10:06:45;;;;;;;34.17;32.47;;;22.60;93.60;;;;;;5039790;28;20060;-71
2023/07/20 10:09:14;;;;;;;43.05;40.85;;;22.30;93.30;;;;;;5030465;28;20438;-70
2023/07/20 10:11:49;;;;;;;33.47;31.80;;;22.00;94.20;;;;;;5043608;28;20415;-71
2023/07/20 10:14:19;;;;;;;46.10;43.72;;;22.20;93.80;;;;;;5042279;28;20076;-70
2023/07/20 10:16:54;;;;;;;262.52;249.82;;;22.40;93.40;;;;;;5044956;28;20088;-70
2023/07/20 10:19:36;;;;;;;;;;;22.30;94.30;;;;;;5028074;28;20120;-70
2023/07/20 10:22:13;;;;;;;56.65;53.67;;;22.40;94.50;;;;;;5040069;28;19967;-70
2023/07/20 10:24:41;;;;;;;30.08;28.58;;;22.90;95.40;;;;;;5047681;28;20157;-70
2023/07/20 10:27:09;;;;;;;33.15;31.48;;;23.20;92.80;;;;;;5036671;28;20045;-70
2023/07/20 10:29:35;;;;;;;73.18;69.55;;;23.10;92.30;;;;;;5032342;28;20476;-70
2023/07/20 10:32:01;;;;;;;80.00;76.07;;;22.80;92.80;;;;;;5036975;28;20037;-70
2023/07/20 10:34:27;;;;;;;283.02;268.52;;;22.90;92.10;;;;;;5022227;28;20059;-70
2023/07/20 10:36:54;;;;;;;23.98;22.67;;;23.10;92.80;;;;;;5043233;28;20080;-70
2023/07/20 10:39:36;;;;;;;29.13;27.52;;;23.00;91.60;;;;;;5037631;28;20147;-70
2023/07/20 10:42:09;;;;;;;29.60;28.10;;;22.70;91.50;;;;;;5041986;28;20112;-69
2023/07/20 10:44:47;;;;;;;73.57;70.13;;;22.70;91.80;;;;;;5043578;28;20044;-70
2023/07/20 10:47:13;;;;;;;41.13;39.08;;;22.70;91.80;;;;;;5035882;28;20041;-70
2023/07/20 10:50:01;;;;;;;38.92;37.03;;;22.60;91.50;;;;;;5033133;28;20060;-70
2023/07/20 10:52:37;;;;;;;50.00;47.72;;;22.40;92.00;;;;;;5015663;28;20078;-70
2023/07/20 10:55:16;;;;;;;37.05;35.25;;;22.20;92.10;;;;;;5042074;28;20041;-70
2023/07/20 10:57:42;;;;;;;44.28;42.22;;;21.80;92.00;;;;;;5042995;28;20556;-70
2023/07/20 11:00:12;;;;;;;80.80;77.25;;;21.60;92.10;;;;;;5039813;28;20033;-70
2023/07/20 11:02:49;;;;;;;308.77;293.15;;;21.30;92.00;;;;;;5047732;28;20116;-71
2023/07/20 11:05:38;;;;;;;150.40;143.02;;;21.40;94.30;;;;;;5058220;28;20426;-70
2023/07/20 11:08:09;;;;;;;84.35;80.60;;;22.00;92.70;;;;;;5041406;28;20049;-70
2023/07/20 11:10:34;;;;;;;68.22;65.03;;;22.50;92.40;;;;;;5045891;28;20406;-70
2023/07/20 11:13:34;;;;;;;272.38;259.20;;;23.00;93.10;;;;;;5029789;28;20045;-70
2023/07/20 11:15:59;;;;;;;52.92;50.42;;;23.50;91.60;;;;;;5010260;28;20132;-70
2023/07/20 11:18:26;;;;;;;58.28;55.65;;;23.50;87.20;;;;;;4995980;28;20829;-70
2023/07/20 11:20:52;;;;;;;49.63;47.13;;;22.90;88.30;;;;;;4993769;28;20452;-70
2023/07/20 11:23:20;;;;;;;70.03;66.82;;;22.30;90.60;;;;;;5014459;28;20091;-71
2023/07/20 11:25:46;;;;;;;107.93;103.13;;;21.90;91.50;;;;;;4981265;28;20042;-70
2023/07/20 11:28:12;;;;;;;74.55;71.00;;;21.90;92.70;;;;;;5013165;28;20069;-70
2023/07/20 11:30:38;;;;;;;84.03;80.43;;;21.80;92.30;;;;;;4999908;28;20136;-70
2023/07/20 11:33:05;;;;;;;122.38;117.20;;;21.80;91.60;;;;;;5002023;28;20090;-70
2023/07/20 11:35:36;;;;;;;144.13;137.70;;;21.70;92.00;;;;;;4999005;28;20050;-71
2023/07/20 11:38:02;;;;;;;84.47;80.75;;;21.60;92.30;;;;;;4993485;28;20049;-70
2023/07/20 11:40:28;;;;;;;79.65;76.15;;;21.30;92.00;;;;;;4986648;28;20390;-70
2023/07/20 11:42:53;;;;;;;105.22;100.85;;;21.20;92.00;;;;;;5008909;28;20076;-70
2023/07/20 11:45:20;;;;;;;146.48;140.23;;;21.00;91.90;;;;;;5006223;28;20049;-70
2023/07/20 11:47:45;;;;;;;218.43;208.88;;;20.70;92.80;;;;;;4996114;28;20053;-70
2023/07/20 11:50:13;;;;;;;412.40;391.80;;;20.70;93.10;;;;;;4990160;28;20068;-70
2023/07/20 11:52:40;;;;;;;140.65;134.65;;;20.70;93.70;;;;;;5042597;28;20068;-70
2023/07/20 11:55:06;;;;;;;244.25;233.77;;;20.70;92.60;;;;;;5048555;28;20437;-70
2023/07/20 11:57:32;;;;;;;239.88;229.63;;;20.70;92.50;;;;;;5051247;28;20041;-70
2023/07/20 12:00:04;;;;;;;268.88;256.83;;;20.80;92.40;;;;;;5039968;28;20611;-70
2023/07/20 12:02:30;;;;;;;184.45;176.65;;;20.90;92.30;;;;;;5040981;28;20409;-70
2023/07/20 12:04:56;;;;;;;429.50;407.83;;;21.10;92.00;;;;;;5041182;28;20049;-70
2023/07/20 12:07:22;;;;;;;298.00;283.92;;;21.30;93.40;;;;;;5046265;28;20052;-70